Time;durP1;ratioP1;P1;durP2;ratioP2;P2;SDS_P1;SDS_P2;PMS_P1;PMS_P2;Temp;Humidity;BMP_temperature;BMP_pressure;BME280_temperature;BME280_humidity;BME280_pressure;Samples;Min_cycle;Max_cycle;Signal;HPM_P1;HPM_P2
2022/09/22 00:02:02;;;;;;;2.53;1.30;;;6.90;99.90;;;;;;5002575;28;20521;-74
2022/09/22 00:04:29;;;;;;;1.83;1.40;;;6.70;99.90;;;;;;4996690;28;20467;-74
2022/09/22 00:06:56;;;;;;;1.97;1.80;;;6.60;99.90;;;;;;5000880;28;20557;-75
2022/09/22 00:09:23;;;;;;;2.10;1.90;;;6.50;99.90;;;;;;5000299;28;20502;-75
2022/09/22 00:11:53;;;;;;;3.30;2.30;;;6.20;99.90;;;;;;4996311;28;20798;-75
2022/09/22 00:14:22;;;;;;;2.00;1.40;;;6.10;99.90;;;;;;5000194;28;20549;-74
2022/09/22 00:16:52;;;;;;;0.87;0.83;;;6.00;99.90;;;;;;5012492;28;20986;-74
2022/09/22 00:19:21;;;;;;;1.57;1.33;;;5.90;99.90;;;;;;4999991;28;20816;-74
2022/09/22 00:21:48;;;;;;;6.27;1.70;;;5.90;99.90;;;;;;4996855;28;21002;-74
2022/09/22 00:24:17;;;;;;;2.90;1.13;;;5.70;99.90;;;;;;4998593;28;20875;-74
2022/09/22 00:26:44;;;;;;;2.47;1.10;;;5.60;99.90;;;;;;5000059;28;20473;-74
2022/09/22 00:29:11;;;;;;;1.17;1.17;;;5.70;99.90;;;;;;4995898;28;20508;-74
2022/09/22 00:31:40;;;;;;;1.87;1.40;;;5.70;99.90;;;;;;4994645;28;20917;-75
2022/09/22 00:34:13;;;;;;;1.10;0.83;;;5.60;99.90;;;;;;4998943;28;20562;-74
2022/09/22 00:36:40;;;;;;;1.27;0.90;;;5.60;99.90;;;;;;4992646;28;20567;-74
2022/09/22 00:39:07;;;;;;;3.17;1.30;;;5.70;99.90;;;;;;4998868;28;20498;-74
2022/09/22 00:41:37;;;;;;;4.37;0.97;;;5.80;99.90;;;;;;4999934;28;20652;-74
2022/09/22 00:44:34;;;;;;;1.77;0.80;;;5.80;99.90;;;;;;4999424;28;20929;-75
2022/09/22 00:47:08;;;;;;;3.60;1.30;;;5.80;99.90;;;;;;4999587;28;20460;-74
2022/09/22 00:49:46;;;;;;;1.93;1.40;;;5.90;99.90;;;;;;4999258;28;20528;-74
2022/09/22 00:52:19;;;;;;;0.90;0.90;;;6.00;99.90;;;;;;4995134;28;20491;-74
2022/09/22 00:54:47;;;;;;;0.90;0.90;;;6.10;99.90;;;;;;4996568;28;20526;-75
2022/09/22 00:57:19;;;;;;;1.30;1.00;;;6.20;99.90;;;;;;4995655;28;20523;-75
2022/09/22 00:59:48;;;;;;;2.37;1.10;;;6.20;99.90;;;;;;4993894;28;20499;-74
2022/09/22 01:02:15;;;;;;;0.93;0.80;;;6.20;99.90;;;;;;4997088;28;20494;-74
2022/09/22 01:04:45;;;;;;;2.10;1.23;;;6.30;99.90;;;;;;4995486;28;20959;-75
2022/09/22 01:07:12;;;;;;;1.93;0.90;;;6.40;99.90;;;;;;5001996;28;21002;-74
2022/09/22 01:09:39;;;;;;;2.43;1.40;;;6.50;99.90;;;;;;4995900;28;20492;-75
2022/09/22 01:12:07;;;;;;;2.80;0.93;;;6.50;99.90;;;;;;4997766;28;20520;-74
2022/09/22 01:14:49;;;;;;;1.40;0.90;;;6.60;99.90;;;;;;4998988;28;20534;-74
2022/09/22 01:17:25;;;;;;;1.00;0.90;;;6.60;99.90;;;;;;5001336;28;20570;-75
2022/09/22 01:20:26;;;;;;;5.03;2.30;;;6.60;99.90;;;;;;4997266;28;20498;-75
2022/09/22 01:23:34;;;;;;;1.33;0.70;;;6.50;99.90;;;;;;4990641;28;21017;-74
2022/09/22 01:26:27;;;;;;;2.10;1.27;;;6.50;99.90;;;;;;5005439;28;20479;-74
2022/09/22 01:29:14;;;;;;;1.90;0.90;;;6.50;99.90;;;;;;4997640;28;20458;-74
2022/09/22 01:31:51;;;;;;;5.50;1.10;;;6.50;99.90;;;;;;4999254;28;20460;-75
2022/09/22 01:34:27;;;;;;;1.53;0.80;;;6.50;99.90;;;;;;5004020;28;20470;-74
2022/09/22 01:37:02;;;;;;;1.00;0.90;;;6.40;99.90;;;;;;4993597;28;20499;-75
2022/09/22 01:39:34;;;;;;;1.20;1.07;;;6.40;99.90;;;;;;5000026;28;20498;-75
2022/09/22 01:42:06;;;;;;;1.20;1.03;;;6.40;99.90;;;;;;4999971;28;20450;-75
2022/09/22 01:44:37;;;;;;;4.13;1.07;;;6.40;99.90;;;;;;4995444;28;20502;-74
2022/09/22 01:47:10;;;;;;;0.80;0.80;;;6.40;99.90;;;;;;4998004;28;20666;-74
2022/09/22 01:49:40;;;;;;;0.80;0.80;;;6.50;99.90;;;;;;4998682;28;20517;-74
2022/09/22 01:52:12;;;;;;;1.13;1.03;;;6.50;99.90;;;;;;4996211;28;20468;-75
2022/09/22 01:54:44;;;;;;;2.37;1.13;;;6.50;99.90;;;;;;4996324;28;20449;-75
2022/09/22 01:57:16;;;;;;;2.30;1.50;;;6.50;99.90;;;;;;4990529;28;20468;-75
2022/09/22 01:59:49;;;;;;;1.40;1.30;;;6.50;99.90;;;;;;4991186;28;20516;-75
2022/09/22 02:02:25;;;;;;;1.67;1.10;;;6.50;99.90;;;;;;4996066;28;20500;-75
2022/09/22 02:04:55;;;;;;;2.87;1.30;;;6.50;99.90;;;;;;4995790;28;20901;-74
2022/09/22 02:07:27;;;;;;;1.67;1.57;;;6.40;99.90;;;;;;4996202;28;20489;-75
2022/09/22 02:09:55;;;;;;;2.00;1.60;;;6.40;99.90;;;;;;4996514;28;20494;-75
2022/09/22 02:12:22;;;;;;;2.93;1.67;;;6.30;99.90;;;;;;4999743;28;20492;-74
2022/09/22 02:14:50;;;;;;;1.73;1.23;;;6.30;99.90;;;;;;4997247;28;20471;-75
2022/09/22 02:17:18;;;;;;;2.50;1.50;;;6.20;99.90;;;;;;5031922;28;21062;-75
2022/09/22 02:19:45;;;;;;;2.40;1.30;;;6.10;99.90;;;;;;4997119;28;20945;-75
2022/09/22 02:22:13;;;;;;;1.10;1.00;;;6.00;99.90;;;;;;4999350;28;20467;-75
2022/09/22 02:24:41;;;;;;;2.07;1.70;;;5.90;99.90;;;;;;4994707;28;20645;-75
2022/09/22 02:27:12;;;;;;;3.00;2.10;;;5.80;99.90;;;;;;5000027;28;20546;-75
2022/09/22 02:29:43;;;;;;;2.27;1.70;;;5.80;99.90;;;;;;4995601;28;20498;-75
2022/09/22 02:32:13;;;;;;;6.83;6.20;;;5.80;99.90;;;;;;4995266;28;20446;-74
2022/09/22 02:34:42;;;;;;;11.93;10.63;;;5.70;99.90;;;;;;4990296;28;20524;-74
2022/09/22 02:37:18;;;;;;;5.20;3.10;;;5.80;99.90;;;;;;4997417;28;20564;-74
2022/09/22 02:39:50;;;;;;;1.40;1.30;;;5.80;99.90;;;;;;4995148;28;20844;-74
2022/09/22 02:42:27;;;;;;;11.50;10.47;;;5.80;99.90;;;;;;5001670;28;20499;-74
2022/09/22 02:45:00;;;;;;;7.93;5.67;;;5.80;99.90;;;;;;4996945;28;20619;-74
2022/09/22 02:47:32;;;;;;;8.27;7.67;;;5.60;99.90;;;;;;5000481;28;20519;-74
2022/09/22 02:50:04;;;;;;;13.23;11.93;;;5.60;99.90;;;;;;5000478;28;20533;-74
2022/09/22 02:52:31;;;;;;;14.57;10.27;;;5.60;99.90;;;;;;4998737;28;20554;-74
2022/09/22 02:54:58;;;;;;;20.90;17.60;;;5.60;99.90;;;;;;5001435;28;20482;-74
2022/09/22 02:57:25;;;;;;;13.73;11.53;;;5.60;99.90;;;;;;5002774;28;20892;-74
2022/09/22 02:59:51;;;;;;;3.23;3.03;;;5.50;99.90;;;;;;5008256;28;20550;-74
2022/09/22 03:02:19;;;;;;;5.13;4.63;;;5.50;99.90;;;;;;5000449;28;20808;-74
2022/09/22 03:04:45;;;;;;;4.10;3.70;;;5.40;99.90;;;;;;4996976;28;20762;-74
2022/09/22 03:07:14;;;;;;;4.30;3.70;;;5.40;99.90;;;;;;4999737;28;20563;-74
2022/09/22 03:09:41;;;;;;;1.97;0.97;;;5.20;99.90;;;;;;5000691;28;20542;-74
2022/09/22 03:12:08;;;;;;;2.40;2.20;;;5.20;99.90;;;;;;5002817;28;21001;-74
2022/09/22 03:14:35;;;;;;;7.80;6.93;;;5.30;99.90;;;;;;5002926;28;20535;-75
2022/09/22 03:17:02;;;;;;;2.13;2.03;;;5.30;99.90;;;;;;5002645;28;20547;-74
2022/09/22 03:19:29;;;;;;;1.93;1.00;;;5.30;99.90;;;;;;5008207;28;20492;-74
2022/09/22 03:21:56;;;;;;;1.20;1.20;;;5.40;99.90;;;;;;4998998;28;20462;-74
2022/09/22 03:24:24;;;;;;;0.70;0.60;;;5.40;99.90;;;;;;5004303;28;20511;-74
2022/09/22 03:26:51;;;;;;;1.60;1.00;;;5.40;99.90;;;;;;4995459;28;20794;-74
2022/09/22 03:29:18;;;;;;;0.70;0.70;;;5.40;99.90;;;;;;4995567;28;20548;-74
2022/09/22 03:31:45;;;;;;;1.20;0.90;;;5.30;99.90;;;;;;4995754;28;20496;-74
2022/09/22 03:34:12;;;;;;;2.50;1.80;;;5.30;99.90;;;;;;5002316;28;20501;-74
2022/09/22 03:36:39;;;;;;;23.93;15.87;;;5.30;99.90;;;;;;4999004;28;20470;-74
2022/09/22 03:39:06;;;;;;;6.07;4.50;;;5.30;99.90;;;;;;5000427;28;20494;-74
2022/09/22 03:41:34;;;;;;;31.80;21.83;;;5.30;99.90;;;;;;5000842;28;21106;-74
2022/09/22 03:44:03;;;;;;;10.13;8.80;;;5.40;99.90;;;;;;5001815;28;20502;-74
2022/09/22 03:46:30;;;;;;;10.00;8.23;;;5.30;99.90;;;;;;4989594;28;20471;-74
2022/09/22 03:48:57;;;;;;;2.83;2.47;;;5.30;99.90;;;;;;4998215;28;20461;-74
2022/09/22 03:51:24;;;;;;;1.23;1.13;;;5.30;99.90;;;;;;5000922;28;20489;-74
2022/09/22 03:53:50;;;;;;;1.10;0.90;;;5.30;99.90;;;;;;5001066;28;21153;-74
2022/09/22 03:56:17;;;;;;;2.47;0.73;;;5.40;99.90;;;;;;5001311;28;20510;-74
2022/09/22 03:58:46;;;;;;;2.60;0.80;;;5.30;99.90;;;;;;4999448;28;20526;-75
2022/09/22 04:01:13;;;;;;;7.20;1.10;;;5.40;99.90;;;;;;5002327;28;20473;-74
2022/09/22 04:03:40;;;;;;;1.30;1.20;;;5.30;99.90;;;;;;4999548;28;20489;-74
2022/09/22 04:06:07;;;;;;;1.57;1.10;;;5.20;99.90;;;;;;4999040;28;20465;-74
2022/09/22 04:08:34;;;;;;;5.63;1.13;;;5.20;99.90;;;;;;5000107;28;20595;-74
2022/09/22 04:11:02;;;;;;;1.27;0.90;;;5.10;99.90;;;;;;4998984;28;20912;-74
2022/09/22 04:13:29;;;;;;;2.00;1.77;;;5.00;99.90;;;;;;4996757;28;20601;-74
2022/09/22 04:15:57;;;;;;;1.37;1.00;;;5.00;99.90;;;;;;4998945;28;20466;-75
2022/09/22 04:18:25;;;;;;;0.80;0.70;;;5.00;99.90;;;;;;5001397;28;20730;-74
2022/09/22 04:20:56;;;;;;;1.67;0.80;;;5.00;99.90;;;;;;4994666;28;20463;-74
2022/09/22 04:23:23;;;;;;;2.60;0.80;;;5.00;99.90;;;;;;4999756;28;20469;-74
2022/09/22 04:25:50;;;;;;;2.57;0.90;;;4.90;99.90;;;;;;4999806;28;20575;-74
2022/09/22 04:28:18;;;;;;;0.70;0.70;;;4.80;99.90;;;;;;5000377;28;20493;-74
2022/09/22 04:30:44;;;;;;;1.17;1.00;;;4.80;99.90;;;;;;4995748;28;20858;-74
2022/09/22 04:33:13;;;;;;;1.70;1.43;;;4.90;99.90;;;;;;5004867;28;20500;-74
2022/09/22 04:35:40;;;;;;;3.87;1.47;;;5.00;99.90;;;;;;5002088;28;20546;-74
2022/09/22 04:38:09;;;;;;;6.40;4.90;;;4.80;99.90;;;;;;4997169;28;20561;-74
2022/09/22 04:40:36;;;;;;;6.23;5.33;;;4.80;99.90;;;;;;4999744;28;20956;-74
2022/09/22 04:43:03;;;;;;;3.10;2.80;;;4.80;99.90;;;;;;4997695;28;20462;-74
2022/09/22 04:45:30;;;;;;;3.00;2.80;;;4.80;99.90;;;;;;4991917;28;20904;-74
2022/09/22 04:47:57;;;;;;;1.90;1.57;;;4.80;99.90;;;;;;4995118;28;20467;-74
2022/09/22 04:50:26;;;;;;;1.33;1.00;;;4.90;99.90;;;;;;4999625;28;20471;-74
2022/09/22 04:52:55;;;;;;;0.97;0.80;;;4.80;99.90;;;;;;4995048;28;20895;-74
2022/09/22 04:55:23;;;;;;;1.40;1.07;;;4.80;99.90;;;;;;4996295;28;20466;-74
2022/09/22 04:57:51;;;;;;;1.33;1.20;;;4.80;99.90;;;;;;4991960;28;20952;-74
2022/09/22 05:00:19;;;;;;;4.73;1.20;;;4.80;99.90;;;;;;5019304;28;20623;-75
2022/09/22 05:02:46;;;;;;;1.30;0.90;;;4.70;99.90;;;;;;5005150;28;20519;-74
2022/09/22 05:05:13;;;;;;;0.73;0.73;;;4.70;99.90;;;;;;4995370;28;20498;-74
2022/09/22 05:07:45;;;;;;;2.00;0.70;;;4.70;99.90;;;;;;4994034;28;20870;-74
2022/09/22 05:10:12;;;;;;;1.30;1.03;;;4.80;99.90;;;;;;4997991;28;20477;-74
2022/09/22 05:12:40;;;;;;;1.67;0.97;;;4.70;99.90;;;;;;4996145;28;20571;-75
2022/09/22 05:15:08;;;;;;;0.80;0.67;;;4.60;99.90;;;;;;4995629;28;20490;-74
2022/09/22 05:17:36;;;;;;;0.70;0.70;;;4.60;99.90;;;;;;5009673;28;20463;-74
2022/09/22 05:20:03;;;;;;;1.30;0.83;;;4.60;99.90;;;;;;4995155;28;20837;-74
2022/09/22 05:22:30;;;;;;;1.60;1.13;;;4.60;99.90;;;;;;4999931;28;20467;-75
2022/09/22 05:24:59;;;;;;;1.50;0.70;;;4.60;99.90;;;;;;4997609;28;20462;-74
2022/09/22 05:27:26;;;;;;;1.80;0.80;;;4.50;99.90;;;;;;5005512;28;20501;-75
2022/09/22 05:29:53;;;;;;;0.77;0.77;;;4.50;99.90;;;;;;5003643;28;20459;-75
2022/09/22 05:32:19;;;;;;;1.10;1.00;;;4.50;99.90;;;;;;4992594;28;20491;-75
2022/09/22 05:34:46;;;;;;;1.97;1.00;;;4.50;99.90;;;;;;4996312;28;20558;-75
2022/09/22 05:37:13;;;;;;;1.20;0.90;;;4.50;99.90;;;;;;5004673;28;20885;-75
2022/09/22 05:39:40;;;;;;;2.80;1.00;;;4.50;99.90;;;;;;5012775;28;20493;-75
2022/09/22 05:42:09;;;;;;;1.87;1.10;;;4.50;99.90;;;;;;5006055;28;20585;-75
2022/09/22 05:44:36;;;;;;;1.17;0.90;;;4.70;99.90;;;;;;5001144;28;21065;-75
2022/09/22 05:47:03;;;;;;;4.70;0.80;;;4.90;99.90;;;;;;4993645;28;20546;-75
2022/09/22 05:49:30;;;;;;;2.90;1.00;;;5.10;99.90;;;;;;4995974;28;20516;-75
2022/09/22 05:51:57;;;;;;;1.47;1.20;;;5.30;99.90;;;;;;4992104;28;20778;-75
2022/09/22 05:54:24;;;;;;;1.10;1.00;;;5.50;99.90;;;;;;4994428;28;20774;-75
2022/09/22 05:56:52;;;;;;;0.80;0.70;;;5.60;99.90;;;;;;4996548;28;20560;-74
2022/09/22 05:59:20;;;;;;;2.03;1.93;;;5.80;99.90;;;;;;4998238;28;21208;-74
2022/09/22 06:01:47;;;;;;;3.90;1.37;;;6.00;99.90;;;;;;4996133;28;20795;-75
2022/09/22 06:04:14;;;;;;;1.80;0.90;;;6.20;99.90;;;;;;4991944;28;20478;-75
2022/09/22 06:06:41;;;;;;;1.40;1.30;;;6.30;99.90;;;;;;4996546;28;20803;-75
2022/09/22 06:09:08;;;;;;;2.10;1.23;;;6.30;99.90;;;;;;4994713;28;20458;-75
2022/09/22 06:11:35;;;;;;;0.80;0.80;;;6.20;99.90;;;;;;4986839;28;20471;-75
2022/09/22 06:14:02;;;;;;;0.73;0.73;;;6.30;99.90;;;;;;4981659;28;21124;-75
2022/09/22 06:16:31;;;;;;;1.10;0.93;;;6.30;99.90;;;;;;5004980;28;20537;-75
2022/09/22 06:18:58;;;;;;;2.10;0.80;;;6.40;99.90;;;;;;4996865;28;20504;-75
2022/09/22 06:21:25;;;;;;;1.20;1.00;;;6.50;99.90;;;;;;4995187;28;20740;-75
2022/09/22 06:23:56;;;;;;;1.03;0.93;;;6.60;99.90;;;;;;4996464;28;20472;-75
2022/09/22 06:26:23;;;;;;;2.23;0.93;;;6.70;99.90;;;;;;4992573;28;20488;-75
2022/09/22 06:28:50;;;;;;;1.50;1.40;;;6.90;99.90;;;;;;4984260;28;20868;-74
2022/09/22 06:31:17;;;;;;;2.43;0.80;;;7.00;99.90;;;;;;4983790;28;20491;-74
2022/09/22 06:33:47;;;;;;;0.93;0.67;;;7.00;99.90;;;;;;4987843;28;20934;-74
2022/09/22 06:36:22;;;;;;;1.07;0.87;;;7.10;99.90;;;;;;4982242;28;20470;-74
2022/09/22 06:38:51;;;;;;;9.50;5.60;;;7.20;99.90;;;;;;4976885;28;21003;-74
2022/09/22 06:41:18;;;;;;;92.50;55.93;;;7.40;99.90;;;;;;4992595;28;20470;-74
2022/09/22 06:43:47;;;;;;;2.63;1.90;;;7.60;99.90;;;;;;4975188;28;20604;-74
2022/09/22 06:46:17;;;;;;;9.33;5.90;;;7.60;99.90;;;;;;4992691;28;20471;-74
2022/09/22 06:48:49;;;;;;;1.00;0.90;;;7.70;99.90;;;;;;4997502;28;20479;-74
2022/09/22 06:51:16;;;;;;;1.00;0.90;;;7.90;99.90;;;;;;4996740;28;20590;-74
2022/09/22 06:53:46;;;;;;;1.37;1.27;;;8.00;99.90;;;;;;5000532;28;20468;-74
2022/09/22 06:56:13;;;;;;;2.27;1.33;;;8.00;99.90;;;;;;4997901;28;20561;-74
2022/09/22 06:58:43;;;;;;;8.17;7.47;;;8.00;99.90;;;;;;4987918;28;20478;-74
2022/09/22 07:01:10;;;;;;;5.20;1.00;;;8.00;99.90;;;;;;4989313;28;20478;-74
2022/09/22 07:03:41;;;;;;;0.97;0.97;;;7.90;99.90;;;;;;4984055;28;20507;-74
2022/09/22 07:06:12;;;;;;;1.30;1.20;;;8.00;99.90;;;;;;4987419;28;20459;-74
2022/09/22 07:08:38;;;;;;;4.30;3.07;;;8.00;99.90;;;;;;4996026;28;20470;-74
2022/09/22 07:27:19;;;;;;;1.90;1.80;;;8.10;99.90;;;;;;5108930;27;20609;-74
2022/09/22 07:29:47;;;;;;;2.70;2.60;;;9.00;99.90;;;;;;5098426;28;20469;-74
2022/09/22 07:32:14;;;;;;;1.73;0.80;;;9.20;99.90;;;;;;5092453;28;20550;-74
2022/09/22 07:34:41;;;;;;;2.57;2.30;;;9.30;99.90;;;;;;5096362;28;20485;-75
2022/09/22 07:37:10;;;;;;;1.07;1.00;;;9.30;99.90;;;;;;5089350;28;20478;-75
2022/09/22 07:39:37;;;;;;;1.30;1.20;;;9.50;99.90;;;;;;5096421;28;20459;-74
2022/09/22 07:42:04;;;;;;;1.17;1.07;;;9.90;99.90;;;;;;5096395;28;20969;-74
2022/09/22 07:48:34;;;;;;;10.10;1.53;;;10.10;99.90;;;;;;5092372;28;20752;-74
2022/09/22 07:50:06;;;;;;;8.27;3.83;;;10.10;99.90;;;;;;5096170;28;20461;-76
2022/09/22 07:52:33;;;;;;;0.83;0.83;;;10.30;99.90;;;;;;5098656;28;20573;-76
2022/09/22 07:55:00;;;;;;;15.47;7.80;;;10.40;99.90;;;;;;5094753;28;20513;-75
2022/09/22 07:57:32;;;;;;;1.67;0.80;;;10.70;99.90;;;;;;5094545;28;20518;-76
2022/09/22 08:00:00;;;;;;;1.37;0.90;;;10.80;99.90;;;;;;5098429;28;20477;-76
2022/09/22 08:02:27;;;;;;;1.43;0.80;;;10.80;99.90;;;;;;5096164;28;20462;-76
2022/09/22 08:05:01;;;;;;;3.10;2.10;;;10.80;99.90;;;;;;5089255;28;20466;-74
2022/09/22 08:07:35;;;;;;;1.20;0.80;;;10.90;99.90;;;;;;5090278;28;20472;-74
2022/09/22 08:10:01;;;;;;;3.10;1.60;;;11.00;99.90;;;;;;5095980;28;20465;-74
2022/09/22 08:12:28;;;;;;;2.20;0.90;;;11.10;99.90;;;;;;5092275;28;20832;-76
2022/09/22 08:14:56;;;;;;;0.80;0.80;;;11.00;99.90;;;;;;5087299;28;20574;-75
2022/09/22 08:17:25;;;;;;;1.40;1.13;;;11.10;99.90;;;;;;5093588;28;20645;-75
2022/09/22 08:19:52;;;;;;;0.70;0.70;;;11.10;99.90;;;;;;5088267;28;20925;-75
2022/09/22 08:22:19;;;;;;;1.20;0.70;;;11.00;99.90;;;;;;5091574;28;20486;-75
2022/09/22 08:24:46;;;;;;;2.03;1.93;;;11.20;99.90;;;;;;5096854;28;20466;-75
2022/09/22 08:27:13;;;;;;;2.03;1.17;;;11.20;99.90;;;;;;5087394;28;20522;-75
2022/09/22 08:29:42;;;;;;;1.37;1.07;;;11.00;99.90;;;;;;5084641;28;20490;-75
2022/09/22 08:32:09;;;;;;;1.43;1.13;;;11.20;99.90;;;;;;5082356;28;20805;-76
2022/09/22 08:34:37;;;;;;;2.40;1.27;;;11.30;99.90;;;;;;5083634;28;20512;-75
2022/09/22 08:37:05;;;;;;;3.27;1.00;;;11.20;99.90;;;;;;5080766;28;20550;-75
2022/09/22 08:39:31;;;;;;;2.20;1.20;;;11.40;99.90;;;;;;5080905;28;20564;-76
2022/09/22 08:42:08;;;;;;;2.23;1.00;;;11.70;99.90;;;;;;5084671;28;20593;-75
2022/09/22 08:44:39;;;;;;;1.47;1.37;;;11.70;99.90;;;;;;5082603;28;20458;-75
2022/09/22 08:47:13;;;;;;;2.60;1.10;;;11.70;99.90;;;;;;5080818;28;20451;-75
2022/09/22 08:52:37;;;;;;;1.47;1.37;;;11.70;99.90;;;;;;5079316;28;20582;-75
2022/09/22 08:55:07;;;;;;;1.43;1.33;;;11.80;99.90;;;;;;5084320;28;20559;-76
2022/09/22 08:57:55;;;;;;;1.13;1.00;;;12.00;99.90;;;;;;5076264;28;20464;-75
2022/09/22 09:00:23;;;;;;;2.70;1.23;;;12.10;99.90;;;;;;5075167;28;20463;-75
2022/09/22 09:03:02;;;;;;;1.30;1.20;;;12.40;99.90;;;;;;5074521;28;20501;-75
2022/09/22 09:05:53;;;;;;;1.73;1.10;;;12.60;99.90;;;;;;5081879;28;21138;-75
2022/09/22 09:09:10;;;;;;;1.33;1.23;;;12.90;99.90;;;;;;5082835;28;20568;-76
2022/09/22 09:11:58;;;;;;;1.30;1.20;;;13.40;99.90;;;;;;5083858;28;21040;-76
2022/09/22 09:14:52;;;;;;;2.20;1.20;;;13.20;99.90;;;;;;5078862;28;20490;-76
2022/09/22 09:17:23;;;;;;;2.40;1.53;;;13.10;99.90;;;;;;5081718;28;20495;-76
2022/09/22 09:19:54;;;;;;;1.90;1.13;;;13.30;99.90;;;;;;5078601;28;20547;-76
2022/09/22 09:22:26;;;;;;;1.53;1.43;;;13.60;99.90;;;;;;5078753;28;20498;-75
2022/09/22 09:24:57;;;;;;;1.70;1.60;;;13.70;99.90;;;;;;5078303;28;20493;-76
2022/09/22 09:27:27;;;;;;;1.80;0.93;;;13.60;99.90;;;;;;5077419;28;20528;-75
2022/09/22 09:30:03;;;;;;;1.40;1.30;;;13.60;99.90;;;;;;5083198;28;20459;-76
2022/09/22 09:32:37;;;;;;;1.37;1.23;;;13.70;99.90;;;;;;5072368;28;20462;-76
2022/09/22 09:35:06;;;;;;;1.10;1.10;;;13.40;99.90;;;;;;5081543;28;20453;-76
2022/09/22 09:37:35;;;;;;;1.63;1.23;;;14.00;99.90;;;;;;5080610;28;20566;-76
2022/09/22 09:40:04;;;;;;;1.40;1.30;;;14.10;99.90;;;;;;5081825;28;21015;-76
2022/09/22 09:42:35;;;;;;;1.30;1.00;;;14.40;99.90;;;;;;5076371;28;20548;-76
2022/09/22 09:45:04;;;;;;;1.63;1.20;;;14.70;99.90;;;;;;5080254;28;20476;-76
2022/09/22 09:47:46;;;;;;;1.57;1.47;;;14.60;99.90;;;;;;5078602;28;20902;-76
2022/09/22 09:50:15;;;;;;;2.03;1.83;;;14.70;99.90;;;;;;5080044;28;20476;-76
2022/09/22 09:52:45;;;;;;;2.83;1.13;;;14.10;99.90;;;;;;5078738;28;20458;-75
2022/09/22 09:55:24;;;;;;;1.60;1.50;;;13.80;99.90;;;;;;5081691;28;20497;-76
2022/09/22 09:58:10;;;;;;;1.30;1.20;;;14.40;99.90;;;;;;5077345;28;20495;-76
2022/09/22 10:00:56;;;;;;;3.97;1.70;;;14.50;99.90;;;;;;5076151;28;20460;-76
2022/09/22 10:03:28;;;;;;;3.57;1.10;;;14.50;99.90;;;;;;5079439;28;22476;-76
2022/09/22 10:05:59;;;;;;;2.20;2.00;;;14.70;99.90;;;;;;5078453;28;21136;-76
2022/09/22 10:08:33;;;;;;;1.30;1.20;;;14.70;99.90;;;;;;5077005;28;20476;-76
2022/09/22 10:11:00;;;;;;;1.93;1.40;;;14.70;99.90;;;;;;5080889;28;20915;-76
2022/09/22 10:13:33;;;;;;;3.27;1.17;;;14.70;99.90;;;;;;5070252;28;20872;-76
2022/09/22 10:16:19;;;;;;;3.47;1.60;;;14.70;99.90;;;;;;5080423;28;20582;-75
2022/09/22 10:18:47;;;;;;;2.30;1.67;;;14.80;99.90;;;;;;5084824;28;20874;-76
2022/09/22 10:21:15;;;;;;;1.70;1.60;;;15.00;99.90;;;;;;5080743;28;20491;-77
2022/09/22 10:23:45;;;;;;;3.50;1.43;;;14.80;99.90;;;;;;5075740;28;21199;-76
2022/09/22 10:26:25;;;;;;;5.40;1.70;;;15.30;99.90;;;;;;5081362;28;20549;-77
2022/09/22 10:29:15;;;;;;;2.20;1.60;;;15.70;99.90;;;;;;5071686;28;20907;-77
2022/09/22 10:31:59;;;;;;;1.63;0.87;;;15.80;99.90;;;;;;5079428;28;20521;-75
2022/09/22 10:34:30;;;;;;;3.57;1.20;;;15.60;99.90;;;;;;5078792;28;20469;-75
2022/09/22 10:36:58;;;;;;;4.60;1.57;;;15.80;99.80;;;;;;5076471;28;20614;-75
2022/09/22 10:39:35;;;;;;;1.70;1.60;;;15.50;99.90;;;;;;5081876;28;20486;-75
2022/09/22 10:42:06;;;;;;;1.40;1.10;;;15.80;99.90;;;;;;5080221;28;20459;-75
2022/09/22 10:44:34;;;;;;;1.67;1.40;;;16.30;99.90;;;;;;5073507;28;20546;-75
2022/09/22 10:47:22;;;;;;;3.77;1.30;;;16.50;99.90;;;;;;5083390;28;20855;-75
2022/09/22 10:50:13;;;;;;;1.60;1.30;;;16.20;99.90;;;;;;5081076;28;20488;-76
2022/09/22 10:52:48;;;;;;;3.20;1.20;;;16.10;99.80;;;;;;5075482;28;20494;-75
2022/09/22 10:55:28;;;;;;;3.27;0.90;;;16.50;97.90;;;;;;5069123;28;20465;-75
2022/09/22 10:58:16;;;;;;;2.03;1.13;;;16.80;96.20;;;;;;5068243;28;20571;-76
2022/09/22 11:00:43;;;;;;;2.20;1.13;;;17.00;96.30;;;;;;5069163;28;20542;-76
2022/09/22 11:03:46;;;;;;;0.80;0.70;;;16.60;93.50;;;;;;5075707;28;20472;-75
2022/09/22 11:12:18;;;;;;;1.37;1.10;;;16.20;93.80;;;;;;5072288;28;20519;-75
2022/09/22 11:15:01;;;;;;;1.53;1.43;;;15.70;95.60;;;;;;5076850;28;20470;-76
2022/09/22 11:17:44;;;;;;;2.40;1.53;;;16.00;95.00;;;;;;5077889;28;20482;-76
2022/09/22 11:20:28;;;;;;;1.37;1.27;;;16.00;95.60;;;;;;5075544;28;20482;-76
2022/09/22 11:23:08;;;;;;;1.10;1.00;;;16.00;96.30;;;;;;5075900;28;20515;-75
2022/09/22 11:25:50;;;;;;;2.50;1.30;;;16.20;95.90;;;;;;5074128;28;20578;-75
2022/09/22 11:28:38;;;;;;;1.20;1.10;;;15.70;95.20;;;;;;5075562;28;20467;-75
2022/09/22 11:31:05;;;;;;;0.87;0.87;;;16.00;94.20;;;;;;5081382;28;20488;-75
2022/09/22 11:34:01;;;;;;;1.67;1.17;;;15.90;94.50;;;;;;5076579;28;20467;-75
2022/09/22 11:36:41;;;;;;;1.20;0.87;;;16.30;97.10;;;;;;5073004;28;20487;-75
2022/09/22 11:39:19;;;;;;;1.00;0.90;;;16.10;94.10;;;;;;5067593;28;20519;-76
2022/09/22 11:41:56;;;;;;;1.13;1.03;;;15.90;94.00;;;;;;5071318;28;20535;-75
2022/09/22 11:44:34;;;;;;;0.90;0.70;;;16.20;93.60;;;;;;5073828;28;20496;-76
2022/09/22 11:47:24;;;;;;;0.70;0.57;;;16.20;92.40;;;;;;5075662;28;20825;-76
2022/09/22 11:50:31;;;;;;;0.70;0.70;;;16.20;91.30;;;;;;5074603;28;20454;-76
2022/09/22 11:53:27;;;;;;;1.47;0.70;;;15.80;92.10;;;;;;5064602;28;20562;-75
2022/09/22 11:56:22;;;;;;;0.80;0.80;;;16.10;92.40;;;;;;5071611;28;20489;-75
2022/09/22 11:58:51;;;;;;;0.70;0.70;;;15.80;91.60;;;;;;5074009;28;20689;-76
2022/09/22 12:01:28;;;;;;;0.80;0.80;;;15.90;90.30;;;;;;5077709;28;20551;-75
2022/09/22 12:04:03;;;;;;;0.70;0.70;;;16.00;92.30;;;;;;5083954;28;20486;-75
2022/09/22 12:06:36;;;;;;;1.07;1.00;;;16.00;94.80;;;;;;5075732;28;20486;-75
2022/09/22 12:09:09;;;;;;;1.30;0.90;;;16.30;94.70;;;;;;5081507;28;20458;-76
2022/09/22 12:11:37;;;;;;;1.33;0.70;;;16.10;92.40;;;;;;5080915;28;20494;-76
2022/09/22 12:14:05;;;;;;;1.00;0.90;;;15.80;92.00;;;;;;5084386;28;20457;-76
2022/09/22 12:16:41;;;;;;;0.70;0.70;;;15.30;94.00;;;;;;5079637;28;20566;-76
2022/09/22 12:19:20;;;;;;;1.60;1.07;;;15.20;93.70;;;;;;5085465;28;20481;-76
2022/09/22 12:21:52;;;;;;;0.90;0.90;;;15.20;95.50;;;;;;5081478;28;20925;-75
2022/09/22 12:24:19;;;;;;;0.90;0.70;;;15.20;93.90;;;;;;5079601;28;20456;-76
2022/09/22 12:26:48;;;;;;;1.10;0.80;;;15.30;96.20;;;;;;5087083;28;20886;-75
2022/09/22 12:29:27;;;;;;;1.23;1.03;;;15.40;95.30;;;;;;5083364;28;20506;-75
2022/09/22 12:31:58;;;;;;;0.80;0.80;;;15.10;95.20;;;;;;5085106;28;20457;-76
2022/09/22 12:34:28;;;;;;;0.90;0.90;;;14.80;94.50;;;;;;5081083;28;20464;-76
2022/09/22 12:36:58;;;;;;;0.80;0.80;;;14.60;94.30;;;;;;5083448;28;20625;-76
2022/09/22 12:39:28;;;;;;;1.10;0.83;;;14.80;94.00;;;;;;5083643;28;20583;-76
2022/09/22 12:41:58;;;;;;;0.80;0.80;;;15.20;95.40;;;;;;5082353;28;20559;-75
2022/09/22 12:44:29;;;;;;;1.20;0.80;;;15.90;94.00;;;;;;5080193;28;20567;-76
2022/09/22 12:47:01;;;;;;;1.00;1.00;;;15.90;94.10;;;;;;5080160;28;20470;-75
2022/09/22 12:49:28;;;;;;;1.43;0.80;;;15.70;92.60;;;;;;5080525;28;20465;-75
2022/09/22 12:51:56;;;;;;;0.80;0.80;;;15.70;94.40;;;;;;5084369;28;20480;-76
2022/09/22 12:54:37;;;;;;;1.90;0.87;;;15.90;93.80;;;;;;5084787;28;20461;-76
2022/09/22 12:57:24;;;;;;;0.97;0.97;;;16.20;93.70;;;;;;5080940;28;20972;-76
2022/09/22 13:00:28;;;;;;;0.83;0.83;;;16.40;93.10;;;;;;5080587;28;20450;-76
2022/09/22 13:02:56;;;;;;;0.97;0.70;;;16.50;91.80;;;;;;5080824;28;20460;-76
2022/09/22 13:05:42;;;;;;;0.87;0.83;;;16.40;92.00;;;;;;5081616;28;20454;-76
2022/09/22 13:08:24;;;;;;;2.10;1.07;;;16.50;91.90;;;;;;5071319;28;20451;-75
2022/09/22 13:10:57;;;;;;;0.93;0.83;;;16.80;92.90;;;;;;5084922;28;20973;-76
2022/09/22 13:13:36;;;;;;;0.70;0.70;;;16.80;90.90;;;;;;5082287;28;20466;-76
2022/09/22 13:16:24;;;;;;;0.77;0.60;;;16.70;92.00;;;;;;5078110;28;20901;-76
2022/09/22 13:18:59;;;;;;;0.80;0.80;;;16.60;91.70;;;;;;5081376;28;20443;-75
2022/09/22 13:21:28;;;;;;;1.13;1.00;;;16.40;92.30;;;;;;5083989;28;20445;-76
2022/09/22 13:23:57;;;;;;;0.70;0.70;;;16.70;93.20;;;;;;5082764;28;20517;-75
2022/09/22 13:26:26;;;;;;;0.80;0.70;;;16.50;92.60;;;;;;5084277;28;20483;-76
2022/09/22 13:29:06;;;;;;;0.80;0.80;;;16.50;91.10;;;;;;5086049;28;20458;-75
2022/09/22 13:31:38;;;;;;;1.23;1.13;;;16.40;90.90;;;;;;5082765;28;20452;-76
2022/09/22 13:34:26;;;;;;;0.90;0.80;;;16.20;91.60;;;;;;5079775;28;20501;-75
2022/09/22 13:36:56;;;;;;;1.60;1.03;;;16.30;92.60;;;;;;5081621;28;20485;-76
2022/09/22 13:39:25;;;;;;;1.87;1.77;;;16.10;91.30;;;;;;5076276;28;20447;-76
2022/09/22 13:41:58;;;;;;;1.00;0.87;;;16.20;91.20;;;;;;5085126;28;21194;-75
2022/09/22 13:44:28;;;;;;;0.97;0.87;;;16.20;91.00;;;;;;5081137;28;20611;-76
2022/09/22 13:46:57;;;;;;;0.67;0.67;;;16.20;89.50;;;;;;5081554;28;20516;-75